Time;durP1;ratioP1;P1;durP2;ratioP2;P2;SDS_P1;SDS_P2;PMS_P1;PMS_P2;Temp;Humidity;BMP_temperature;BMP_pressure;BME280_temperature;BME280_humidity;BME280_pressure;Samples;Min_cycle;Max_cycle;Signal;HPM_P1;HPM_P2
2023/10/26 00:02:25;;;;;;;10.13;6.70;;;24.00;58.30;;;;;;6195627;28;80524;-75
2023/10/26 00:05:25;;;;;;;8.98;6.55;;;24.00;58.30;;;;;;6170822;28;80316;-68
2023/10/26 00:08:26;;;;;;;9.50;6.68;;;24.00;58.50;;;;;;6172739;28;80674;-69
2023/10/26 00:11:26;;;;;;;9.18;6.40;;;24.00;58.20;;;;;;6159437;28;80645;-69
2023/10/26 00:14:27;;;;;;;9.00;5.93;;;24.00;58.20;;;;;;6176634;28;80502;-69
2023/10/26 00:17:27;;;;;;;9.45;6.82;;;24.00;58.30;;;;;;6178394;27;81352;-68
2023/10/26 00:20:28;;;;;;;10.85;7.13;;;24.00;58.20;;;;;;6170020;28;81137;-69
2023/10/26 00:23:28;;;;;;;10.80;6.43;;;24.00;58.30;;;;;;6187754;28;80871;-70
2023/10/26 00:26:29;;;;;;;7.82;5.72;;;24.00;58.90;;;;;;6159667;28;80379;-69
2023/10/26 00:29:29;;;;;;;10.50;6.40;;;24.00;58.30;;;;;;6184744;28;81022;-67
2023/10/26 00:32:30;;;;;;;12.07;7.18;;;24.00;58.40;;;;;;6165605;28;80274;-67
2023/10/26 00:35:31;;;;;;;9.27;5.78;;;24.00;58.50;;;;;;6177004;28;81430;-68
2023/10/26 00:38:32;;;;;;;12.07;6.57;;;24.00;58.50;;;;;;6181361;28;83228;-68
2023/10/26 00:41:32;;;;;;;10.85;5.95;;;24.00;58.50;;;;;;6196484;28;83025;-72
2023/10/26 00:44:33;;;;;;;8.88;6.25;;;24.00;58.30;;;;;;6199168;28;81414;-72
2023/10/26 00:47:33;;;;;;;10.40;6.40;;;24.10;58.40;;;;;;6179521;28;81511;-74
2023/10/26 00:50:34;;;;;;;8.32;6.03;;;24.10;58.50;;;;;;6187744;28;80521;-72
2023/10/26 00:53:34;;;;;;;8.82;6.00;;;24.10;58.70;;;;;;6197349;28;83867;-70
2023/10/26 00:56:35;;;;;;;9.20;6.30;;;24.10;58.60;;;;;;6194026;28;80280;-70
2023/10/26 00:59:36;;;;;;;8.25;6.20;;;24.10;58.60;;;;;;6182809;28;83739;-68
2023/10/26 01:02:37;;;;;;;10.50;6.75;;;24.10;58.70;;;;;;6202850;28;81794;-66
2023/10/26 01:05:37;;;;;;;9.13;6.30;;;24.10;58.80;;;;;;6185221;28;83750;-66
2023/10/26 01:08:38;;;;;;;9.23;6.25;;;24.10;58.80;;;;;;6177306;28;80808;-67
2023/10/26 01:11:39;;;;;;;9.50;5.97;;;24.10;58.80;;;;;;6179288;28;80352;-69
2023/10/26 01:14:40;;;;;;;10.90;6.65;;;24.10;58.70;;;;;;6188637;28;80569;-70
2023/10/26 01:17:41;;;;;;;10.23;6.50;;;24.10;58.70;;;;;;6198886;28;83316;-68
2023/10/26 01:20:41;;;;;;;7.82;6.00;;;24.10;58.70;;;;;;6182735;28;80926;-68
2023/10/26 01:23:42;;;;;;;8.18;6.05;;;24.10;58.70;;;;;;6171413;28;80745;-68
2023/10/26 01:26:43;;;;;;;8.80;6.05;;;24.10;58.30;;;;;;6176665;28;80695;-67
2023/10/26 01:29:43;;;;;;;9.13;6.53;;;24.10;58.10;;;;;;6188519;28;85537;-68
2023/10/26 01:32:43;;;;;;;9.57;6.55;;;24.00;58.10;;;;;;6168053;28;80453;-68
2023/10/26 01:35:45;;;;;;;8.82;6.75;;;23.90;58.10;;;;;;6178919;28;82688;-66
2023/10/26 01:38:46;;;;;;;7.80;6.28;;;23.90;58.10;;;;;;6186963;28;80956;-68
2023/10/26 01:41:47;;;;;;;8.43;6.32;;;23.90;58.10;;;;;;6197194;28;83828;-68
2023/10/26 01:44:47;;;;;;;12.75;6.25;;;23.90;58.20;;;;;;6157724;28;80699;-68
2023/10/26 01:47:48;;;;;;;10.48;6.85;;;23.90;58.10;;;;;;6182384;28;82705;-69
2023/10/26 01:50:48;;;;;;;9.75;6.57;;;23.90;58.20;;;;;;6185774;28;81822;-69
2023/10/26 01:53:49;;;;;;;13.00;7.40;;;23.90;58.20;;;;;;6182299;28;80326;-69
2023/10/26 01:56:49;;;;;;;9.93;6.70;;;23.90;58.30;;;;;;6156151;28;80162;-71
2023/10/26 01:59:54;;;;;;;11.05;5.93;;;23.80;58.30;;;;;;6167330;28;83531;-71
2023/10/26 02:02:55;;;;;;;9.65;6.63;;;23.80;58.20;;;;;;6157212;28;81711;-71
2023/10/26 02:05:56;;;;;;;9.90;7.22;;;23.80;58.20;;;;;;6167174;28;82073;-72
2023/10/26 02:08:57;;;;;;;8.50;6.10;;;23.80;58.30;;;;;;6174265;28;80508;-71
2023/10/26 02:11:58;;;;;;;11.25;7.55;;;23.90;58.30;;;;;;6149651;28;90496;-72
2023/10/26 02:14:58;;;;;;;9.68;6.53;;;23.90;58.20;;;;;;6176230;28;84441;-69
2023/10/26 02:17:59;;;;;;;11.50;7.25;;;23.80;58.20;;;;;;6189884;28;80505;-71
2023/10/26 02:21:00;;;;;;;10.80;7.65;;;23.90;58.20;;;;;;6189525;28;83558;-70
2023/10/26 02:24:00;;;;;;;12.75;7.07;;;23.80;58.20;;;;;;6199923;28;83016;-71
2023/10/26 02:27:01;;;;;;;10.02;6.72;;;23.80;58.30;;;;;;6194619;28;80426;-71
2023/10/26 02:30:02;;;;;;;13.05;7.55;;;23.90;58.30;;;;;;6178657;28;83027;-71
2023/10/26 02:33:02;;;;;;;11.90;8.18;;;23.80;58.30;;;;;;6195154;28;81414;-67
2023/10/26 02:36:06;;;;;;;10.32;7.03;;;23.80;58.30;;;;;;6178148;28;86866;-68
2023/10/26 02:39:06;;;;;;;11.07;7.07;;;23.90;58.20;;;;;;6177381;28;83186;-68
2023/10/26 02:42:08;;;;;;;14.40;8.18;;;23.90;58.00;;;;;;6176268;28;80388;-68
2023/10/26 02:45:09;;;;;;;9.02;7.28;;;23.90;58.00;;;;;;6177008;28;80306;-67
2023/10/26 02:48:09;;;;;;;12.48;7.00;;;23.90;58.10;;;;;;6196857;28;80293;-67
2023/10/26 02:51:10;;;;;;;11.30;7.10;;;23.80;58.10;;;;;;6167703;28;82042;-70
2023/10/26 02:54:10;;;;;;;10.65;6.85;;;23.80;58.20;;;;;;6196873;28;80705;-68
2023/10/26 02:57:11;;;;;;;11.63;6.93;;;23.90;58.20;;;;;;6174707;28;81328;-68
2023/10/26 03:00:12;;;;;;;12.65;7.15;;;23.90;58.30;;;;;;6165658;28;80460;-69
2023/10/26 03:03:12;;;;;;;11.55;7.32;;;23.90;58.40;;;;;;6187253;28;81169;-68
2023/10/26 03:06:13;;;;;;;10.57;7.32;;;24.00;58.20;;;;;;6154689;28;82042;-67
2023/10/26 03:09:13;;;;;;;10.95;6.65;;;24.00;57.90;;;;;;6176625;28;80283;-69
2023/10/26 03:12:14;;;;;;;11.52;6.88;;;24.00;58.00;;;;;;6176296;28;80459;-68
2023/10/26 03:15:15;;;;;;;9.27;7.00;;;24.00;57.70;;;;;;6175605;28;80620;-68
2023/10/26 03:18:17;;;;;;;10.50;6.72;;;24.00;57.40;;;;;;6194169;28;83560;-67
2023/10/26 03:21:20;;;;;;;10.02;6.78;;;24.00;57.40;;;;;;6179716;28;80883;-69
2023/10/26 03:24:20;;;;;;;12.45;6.80;;;24.00;57.10;;;;;;6180481;28;80519;-68
2023/10/26 03:27:21;;;;;;;10.73;6.40;;;24.10;57.00;;;;;;6193241;28;80667;-64
2023/10/26 03:30:21;;;;;;;10.35;7.15;;;24.10;57.00;;;;;;6188390;28;84846;-64
2023/10/26 03:33:22;;;;;;;11.73;6.53;;;24.10;57.00;;;;;;6198237;28;81428;-66
2023/10/26 03:36:22;;;;;;;9.32;6.60;;;24.10;56.80;;;;;;6171390;28;85432;-62
2023/10/26 03:39:23;;;;;;;7.57;5.88;;;24.10;56.80;;;;;;6063597;28;82019;-64
2023/10/26 03:42:24;;;;;;;8.80;6.07;;;24.20;57.50;;;;;;6135534;28;81347;-62
2023/10/26 03:45:27;;;;;;;11.25;7.28;;;24.20;56.70;;;;;;6077463;28;82220;-67
2023/10/26 03:48:27;;;;;;;9.80;6.60;;;24.30;56.90;;;;;;6079262;28;80983;-68
2023/10/26 03:51:28;;;;;;;8.35;6.22;;;24.20;56.70;;;;;;6072071;28;82468;-64
2023/10/26 03:54:28;;;;;;;9.32;5.80;;;24.30;56.90;;;;;;6080486;28;82237;-66
2023/10/26 03:57:29;;;;;;;8.27;5.80;;;24.30;56.80;;;;;;6225513;27;80717;-66
2023/10/26 04:00:29;;;;;;;9.35;5.65;;;24.30;56.90;;;;;;6213989;28;81484;-68
2023/10/26 04:03:30;;;;;;;8.52;5.50;;;24.30;56.80;;;;;;6176730;28;83657;-66
2023/10/26 04:06:30;;;;;;;6.68;5.05;;;24.30;56.80;;;;;;6194716;28;82273;-66
2023/10/26 04:09:31;;;;;;;7.55;6.03;;;24.30;56.70;;;;;;6176124;28;80592;-66
2023/10/26 04:12:31;;;;;;;12.27;6.55;;;24.30;56.60;;;;;;6191158;28;82223;-72
2023/10/26 04:15:32;;;;;;;8.32;5.47;;;24.30;57.30;;;;;;6166299;28;82713;-65
2023/10/26 04:18:32;;;;;;;11.10;6.13;;;24.30;57.40;;;;;;6172917;28;81188;-66
2023/10/26 04:21:33;;;;;;;7.18;5.13;;;24.40;58.00;;;;;;6186511;28;80583;-65
2023/10/26 04:24:34;;;;;;;9.63;6.45;;;24.40;58.10;;;;;;6195739;28;81187;-63
2023/10/26 04:27:35;;;;;;;12.18;6.43;;;24.40;58.10;;;;;;6202439;28;81201;-62
2023/10/26 04:30:35;;;;;;;8.20;5.20;;;24.40;58.10;;;;;;6162572;28;81864;-62
2023/10/26 04:33:36;;;;;;;12.43;5.70;;;24.40;58.00;;;;;;6173895;28;80277;-66
2023/10/26 04:36:36;;;;;;;15.43;7.22;;;24.50;58.30;;;;;;6169981;28;82236;-63
2023/10/26 04:39:37;;;;;;;9.00;5.82;;;24.40;58.50;;;;;;6184215;28;83273;-64
2023/10/26 04:42:38;;;;;;;15.57;6.32;;;24.40;58.20;;;;;;6199236;28;81133;-69
2023/10/26 04:45:38;;;;;;;39.20;7.30;;;24.40;58.20;;;;;;6178639;28;80824;-66
2023/10/26 04:48:39;;;;;;;14.70;5.72;;;24.40;58.80;;;;;;6182397;28;80604;-67
2023/10/26 04:51:39;;;;;;;19.70;6.05;;;24.40;59.20;;;;;;6164748;28;80066;-69
2023/10/26 04:54:40;;;;;;;10.32;5.32;;;24.40;58.90;;;;;;6182601;28;81770;-70
2023/10/26 04:57:40;;;;;;;10.93;6.15;;;24.40;59.10;;;;;;6185617;28;84155;-68
2023/10/26 05:00:41;;;;;;;12.63;5.82;;;24.40;58.70;;;;;;6147539;28;82348;-67
2023/10/26 05:03:41;;;;;;;9.55;6.07;;;24.40;58.50;;;;;;6160243;28;80890;-68
2023/10/26 05:06:42;;;;;;;14.45;6.93;;;24.40;58.20;;;;;;6188147;28;80673;-67
2023/10/26 05:09:42;;;;;;;12.48;6.13;;;24.40;58.20;;;;;;6160029;28;82385;-68
2023/10/26 05:12:43;;;;;;;12.00;5.95;;;24.50;58.00;;;;;;6186920;28;80489;-68
2023/10/26 05:15:44;;;;;;;11.07;6.75;;;24.40;57.90;;;;;;6158819;28;85861;-68
2023/10/26 05:18:44;;;;;;;9.10;6.28;;;24.40;57.60;;;;;;6163822;28;83652;-67
2023/10/26 05:21:45;;;;;;;12.57;7.28;;;24.30;57.70;;;;;;6153967;28;81002;-65
2023/10/26 05:24:45;;;;;;;9.05;6.25;;;24.20;57.80;;;;;;6174054;28;80845;-64
2023/10/26 05:27:46;;;;;;;9.60;6.03;;;24.20;57.70;;;;;;6159548;28;80597;-64
2023/10/26 05:30:46;;;;;;;9.85;6.72;;;24.30;57.70;;;;;;6176304;28;80870;-64
2023/10/26 05:33:47;;;;;;;9.38;6.95;;;24.30;57.70;;;;;;6186205;28;81582;-64
2023/10/26 05:36:47;;;;;;;12.55;6.70;;;24.30;57.70;;;;;;6160907;28;81115;-63
2023/10/26 05:39:48;;;;;;;20.85;8.07;;;24.20;57.50;;;;;;6164791;28;80263;-62
2023/10/26 05:42:49;;;;;;;11.82;7.13;;;24.20;57.40;;;;;;6159687;28;80144;-62
2023/10/26 05:45:50;;;;;;;9.82;6.57;;;24.20;57.40;;;;;;6174605;28;80468;-62
2023/10/26 05:48:50;;;;;;;8.25;5.68;;;24.20;57.30;;;;;;6152711;28;80669;-61
2023/10/26 05:51:51;;;;;;;10.10;6.70;;;24.20;57.40;;;;;;6160430;28;81174;-62
2023/10/26 05:54:52;;;;;;;11.40;7.10;;;24.20;57.40;;;;;;6169441;28;81370;-63
2023/10/26 05:57:52;;;;;;;12.73;7.07;;;24.20;57.30;;;;;;6172268;28;85114;-62
2023/10/26 06:00:53;;;;;;;9.35;6.10;;;24.10;57.70;;;;;;6176875;28;80643;-62
2023/10/26 06:03:53;;;;;;;11.85;6.20;;;24.10;57.50;;;;;;6176470;28;82160;-61
2023/10/26 06:06:54;;;;;;;9.85;5.85;;;24.10;57.60;;;;;;6178316;28;81593;-61
2023/10/26 06:09:55;;;;;;;9.68;6.80;;;24.10;57.70;;;;;;6188239;28;81302;-62
2023/10/26 06:12:55;;;;;;;8.45;6.20;;;24.10;57.80;;;;;;6160904;28;81497;-61
2023/10/26 06:15:56;;;;;;;13.77;6.68;;;24.10;57.60;;;;;;6171830;28;80685;-60
2023/10/26 06:18:56;;;;;;;9.15;5.68;;;24.10;57.90;;;;;;6161534;28;80376;-63
2023/10/26 06:21:57;;;;;;;8.43;6.07;;;24.10;57.90;;;;;;6177581;28;80831;-60
2023/10/26 06:24:57;;;;;;;8.90;6.15;;;24.10;58.00;;;;;;6214009;28;81892;-61
2023/10/26 06:27:58;;;;;;;9.00;6.35;;;24.10;57.90;;;;;;6194941;28;81171;-62
2023/10/26 06:30:58;;;;;;;10.48;6.05;;;24.10;57.80;;;;;;6198009;28;80774;-72
2023/10/26 06:33:59;;;;;;;8.43;5.78;;;24.10;58.00;;;;;;6212467;27;81099;-69
2023/10/26 06:36:59;;;;;;;9.23;5.55;;;24.10;58.20;;;;;;6224890;27;83115;-68
2023/10/26 06:40:00;;;;;;;7.75;5.30;;;24.10;58.30;;;;;;6200126;28;81266;-70
2023/10/26 06:43:00;;;;;;;8.55;5.82;;;24.10;58.30;;;;;;6173028;28;80823;-72
2023/10/26 06:46:01;;;;;;;12.20;5.32;;;24.00;58.30;;;;;;6169875;28;80882;-71
2023/10/26 06:49:01;;;;;;;7.70;4.82;;;24.00;58.00;;;;;;6172845;28;81025;-60
2023/10/26 06:52:02;;;;;;;8.57;5.60;;;24.10;58.20;;;;;;6171638;28;81330;-60
2023/10/26 06:55:03;;;;;;;10.75;5.68;;;24.00;58.30;;;;;;6172254;28;80370;-59
2023/10/26 06:58:04;;;;;;;7.63;5.22;;;24.00;58.40;;;;;;6184590;28;80407;-61
2023/10/26 07:01:06;;;;;;;7.60;5.00;;;24.00;58.30;;;;;;6170691;28;80599;-71
2023/10/26 07:04:07;;;;;;;6.72;5.20;;;24.00;58.60;;;;;;6165652;28;83247;-66
2023/10/26 07:07:08;;;;;;;13.27;5.93;;;23.90;58.50;;;;;;6015211;28;82309;-62
2023/10/26 07:10:14;;;;;;;8.80;5.13;;;23.90;58.40;;;;;;6040720;28;82729;-62
2023/10/26 07:13:16;;;;;;;11.13;5.97;;;23.90;58.70;;;;;;6070672;28;82955;-59
2023/10/26 07:16:17;;;;;;;14.85;5.28;;;23.80;57.80;;;;;;6062050;28;83146;-62
2023/10/26 07:19:17;;;;;;;7.97;4.20;;;23.80;57.70;;;;;;6068167;28;81963;-63
2023/10/26 07:22:18;;;;;;;9.57;4.63;;;23.80;57.60;;;;;;6074162;28;81203;-63
2023/10/26 07:25:19;;;;;;;9.70;3.92;;;23.70;58.30;;;;;;6063985;28;82008;-68
2023/10/26 07:28:19;;;;;;;7.10;3.60;;;23.70;57.70;;;;;;6063259;28;82215;-72
2023/10/26 07:31:19;;;;;;;7.72;3.67;;;23.60;57.60;;;;;;6072534;28;81804;-67
2023/10/26 07:34:20;;;;;;;7.13;3.40;;;23.60;57.60;;;;;;6062315;28;83506;-68
2023/10/26 07:37:21;;;;;;;7.88;3.60;;;23.60;57.70;;;;;;6055240;28;82212;-68
2023/10/26 07:40:22;;;;;;;4.38;3.03;;;23.60;57.90;;;;;;6051227;28;82321;-65
2023/10/26 07:43:22;;;;;;;4.80;3.50;;;23.50;58.10;;;;;;6164438;28;81770;-69
2023/10/26 07:46:23;;;;;;;10.65;3.17;;;23.50;58.20;;;;;;6165757;28;81856;-70
2023/10/26 07:49:23;;;;;;;7.47;2.90;;;23.50;58.40;;;;;;6167314;28;80699;-67
2023/10/26 07:52:24;;;;;;;3.72;2.60;;;23.50;58.30;;;;;;6164022;28;83244;-67
2023/10/26 07:55:24;;;;;;;6.28;2.80;;;23.50;58.50;;;;;;6173599;28;80732;-69
2023/10/26 07:58:25;;;;;;;7.95;3.13;;;23.50;58.60;;;;;;6204857;28;80551;-76
2023/10/26 08:01:26;;;;;;;8.95;3.35;;;23.50;58.70;;;;;;6182486;28;80877;-75
2023/10/26 08:04:29;;;;;;;12.40;4.28;;;23.50;59.10;;;;;;6182794;28;83348;-60
2023/10/26 08:07:30;;;;;;;7.68;4.10;;;23.50;59.00;;;;;;6194138;28;82101;-62
2023/10/26 08:10:35;;;;;;;8.07;4.35;;;23.50;58.90;;;;;;6170897;28;82173;-64
2023/10/26 08:13:35;;;;;;;8.83;5.20;;;23.60;59.00;;;;;;6171287;28;85357;-65
2023/10/26 08:16:36;;;;;;;12.55;5.60;;;23.50;59.00;;;;;;6164882;28;82065;-64
2023/10/26 08:19:38;;;;;;;12.15;4.72;;;23.40;59.40;;;;;;6152685;28;80206;-65
2023/10/26 08:22:38;;;;;;;9.23;4.65;;;23.40;59.30;;;;;;6167192;28;82126;-71
2023/10/26 08:25:39;;;;;;;12.07;5.18;;;23.40;59.50;;;;;;6176050;28;80346;-70
2023/10/26 08:28:40;;;;;;;11.77;5.43;;;23.50;59.30;;;;;;6171892;28;81879;-71
2023/10/26 08:31:41;;;;;;;12.52;5.63;;;23.40;59.40;;;;;;6168596;28;80415;-72
2023/10/26 08:34:41;;;;;;;9.18;5.68;;;23.40;59.40;;;;;;6170628;28;80985;-71
2023/10/26 08:37:42;;;;;;;12.65;6.60;;;23.40;59.40;;;;;;6170643;28;80353;-71
2023/10/26 08:40:42;;;;;;;18.92;6.50;;;23.40;60.30;;;;;;6160755;28;81958;-65
2023/10/26 08:43:43;;;;;;;12.00;6.22;;;23.40;59.40;;;;;;6156122;28;80566;-65
2023/10/26 08:46:44;;;;;;;13.90;6.78;;;23.30;59.30;;;;;;6160922;28;80929;-64
2023/10/26 08:49:44;;;;;;;14.57;6.45;;;23.40;59.50;;;;;;6172857;28;81024;-64
2023/10/26 08:52:45;;;;;;;11.07;6.32;;;23.30;59.50;;;;;;6169259;28;81249;-65
2023/10/26 08:55:47;;;;;;;11.85;7.03;;;23.30;59.90;;;;;;6185519;28;81103;-65
2023/10/26 08:58:48;;;;;;;15.73;5.55;;;23.30;59.80;;;;;;6170894;28;80981;-65
2023/10/26 09:01:49;;;;;;;11.93;6.20;;;23.30;59.80;;;;;;6155741;28;80477;-65
2023/10/26 09:04:49;;;;;;;16.40;5.90;;;23.30;59.90;;;;;;6171212;28;80602;-64
2023/10/26 09:07:51;;;;;;;10.15;5.55;;;23.30;59.80;;;;;;6178378;28;80815;-64
2023/10/26 09:10:51;;;;;;;13.23;5.35;;;23.30;60.00;;;;;;6166065;28;81231;-65
2023/10/26 09:13:52;;;;;;;13.70;5.22;;;23.30;60.00;;;;;;6173545;28;80807;-66
2023/10/26 09:16:54;;;;;;;10.05;4.78;;;23.40;60.00;;;;;;6176511;28;81634;-64
2023/10/26 09:19:55;;;;;;;8.65;4.47;;;23.40;59.80;;;;;;6200614;27;80320;-64
2023/10/26 09:22:55;;;;;;;7.25;3.88;;;23.40;59.60;;;;;;6224739;27;80084;-64
2023/10/26 09:25:56;;;;;;;6.72;3.72;;;23.40;59.40;;;;;;6174555;28;82391;-64
2023/10/26 09:28:57;;;;;;;7.10;3.95;;;23.50;59.30;;;;;;6162410;28;81497;-66
2023/10/26 09:31:57;;;;;;;5.55;3.03;;;23.50;59.10;;;;;;6155914;28;80274;-64
2023/10/26 09:34:58;;;;;;;5.85;2.92;;;23.50;59.00;;;;;;6170442;28;80554;-64
2023/10/26 09:37:59;;;;;;;7.32;3.15;;;23.40;58.80;;;;;;6166306;28;80308;-65
2023/10/26 09:40:59;;;;;;;5.78;2.40;;;23.30;59.00;;;;;;6133410;28;82167;-64
2023/10/26 09:43:59;;;;;;;5.43;2.40;;;23.30;58.50;;;;;;6140197;28;81920;-66
2023/10/26 09:47:00;;;;;;;3.30;2.38;;;23.30;58.70;;;;;;6131563;28;82269;-63
2023/10/26 09:50:00;;;;;;;4.45;1.88;;;23.30;58.40;;;;;;6138832;28;82496;-63
2023/10/26 09:53:01;;;;;;;3.03;2.08;;;22.90;57.90;;;;;;6147175;28;81502;-72
2023/10/26 09:56:02;;;;;;;2.60;2.17;;;22.90;58.60;;;;;;6143915;28;81223;-72
2023/10/26 09:59:03;;;;;;;3.03;1.65;;;22.90;58.40;;;;;;6143262;28;83714;-71
2023/10/26 10:02:04;;;;;;;4.65;1.75;;;22.90;58.00;;;;;;6149284;28;81131;-74
2023/10/26 10:05:04;;;;;;;1.98;1.40;;;22.70;58.50;;;;;;6151096;28;81617;-75
2023/10/26 10:08:05;;;;;;;3.33;1.92;;;22.70;59.30;;;;;;6155011;28;81491;-71
2023/10/26 10:11:05;;;;;;;4.00;2.00;;;22.90;59.70;;;;;;6149435;28;81419;-65
2023/10/26 10:14:06;;;;;;;2.03;1.70;;;23.00;59.80;;;;;;6148934;28;81302;-65
2023/10/26 10:17:07;;;;;;;2.85;1.60;;;23.10;59.80;;;;;;6139163;28;81261;-64
2023/10/26 10:20:07;;;;;;;3.15;1.88;;;23.10;59.40;;;;;;6165802;28;80700;-65
2023/10/26 10:23:08;;;;;;;2.45;1.73;;;23.20;59.50;;;;;;6173633;28;80732;-68
2023/10/26 10:26:08;;;;;;;1.63;1.35;;;23.30;60.50;;;;;;6178986;28;80229;-67
2023/10/26 10:29:09;;;;;;;5.28;1.70;;;23.30;60.00;;;;;;6172586;28;81985;-70
2023/10/26 10:32:12;;;;;;;2.70;1.77;;;23.40;60.00;;;;;;6175367;28;81173;-73
2023/10/26 10:35:13;;;;;;;2.00;1.60;;;23.40;59.70;;;;;;6177402;28;81876;-73
2023/10/26 10:38:14;;;;;;;4.72;2.00;;;23.40;59.40;;;;;;6171005;28;80388;-70
2023/10/26 10:41:15;;;;;;;2.03;1.35;;;23.50;59.40;;;;;;6171653;28;80672;-72
2023/10/26 10:44:16;;;;;;;2.92;1.90;;;23.50;58.90;;;;;;6173674;28;81137;-72
2023/10/26 10:47:17;;;;;;;1.90;1.23;;;23.50;58.80;;;;;;6175615;28;80328;-66
2023/10/26 10:50:17;;;;;;;2.47;1.63;;;23.60;58.90;;;;;;6173357;28;83254;-67
2023/10/26 10:53:18;;;;;;;1.73;1.40;;;23.60;58.50;;;;;;6171474;28;80799;-69
2023/10/26 10:56:18;;;;;;;3.38;1.17;;;23.60;58.20;;;;;;6166953;28;81331;-67
2023/10/26 10:59:19;;;;;;;2.78;1.20;;;23.60;58.10;;;;;;6168783;28;80399;-68
2023/10/26 11:02:19;;;;;;;2.05;1.40;;;23.60;57.60;;;;;;6166689;28;81933;-69
2023/10/26 11:05:20;;;;;;;1.83;1.20;;;23.60;57.40;;;;;;6171310;28;83407;-67
2023/10/26 11:08:20;;;;;;;2.25;1.63;;;23.70;56.80;;;;;;6169612;28;80464;-66
2023/10/26 11:11:21;;;;;;;1.65;0.98;;;23.80;56.30;;;;;;6163668;28;80518;-72
2023/10/26 11:14:21;;;;;;;1.30;0.98;;;24.00;55.90;;;;;;6168287;28;80667;-67
2023/10/26 11:17:22;;;;;;;2.28;1.15;;;24.10;55.40;;;;;;6175997;28;81551;-65
2023/10/26 11:20:22;;;;;;;1.88;1.48;;;24.10;55.60;;;;;;6174201;28;81187;-63
2023/10/26 11:23:23;;;;;;;1.77;1.27;;;24.20;55.50;;;;;;6175374;28;81156;-65
2023/10/26 11:26:23;;;;;;;4.88;1.52;;;24.20;55.10;;;;;;6172172;28;81643;-63
2023/10/26 11:29:23;;;;;;;1.10;0.98;;;24.30;54.90;;;;;;6160908;28;81785;-63
2023/10/26 11:32:24;;;;;;;3.40;1.15;;;24.20;54.90;;;;;;6176352;28;81035;-65
2023/10/26 11:35:26;;;;;;;2.60;1.35;;;24.20;54.50;;;;;;6167522;28;80875;-64
2023/10/26 11:38:27;;;;;;;1.75;1.05;;;24.20;54.60;;;;;;6163288;28;81699;-65
2023/10/26 11:41:30;;;;;;;1.38;1.08;;;24.10;54.20;;;;;;6176034;28;80318;-65
2023/10/26 11:44:33;;;;;;;2.70;1.30;;;24.20;53.80;;;;;;6174606;28;80603;-64
2023/10/26 11:47:34;;;;;;;2.38;0.95;;;24.30;53.60;;;;;;6170618;28;84583;-65
2023/10/26 11:50:35;;;;;;;1.45;1.13;;;24.40;53.40;;;;;;6165004;28;80662;-64
2023/10/26 11:53:35;;;;;;;1.35;1.17;;;24.50;53.30;;;;;;6163592;28;81879;-65
2023/10/26 11:56:36;;;;;;;2.58;1.20;;;24.60;53.20;;;;;;6169734;28;83244;-64
2023/10/26 11:59:36;;;;;;;3.08;1.15;;;24.60;53.00;;;;;;6168812;28;84206;-65
2023/10/26 12:02:37;;;;;;;2.42;1.17;;;24.60;53.10;;;;;;6166726;28;80552;-70
2023/10/26 12:05:37;;;;;;;2.15;1.20;;;24.50;52.90;;;;;;6167579;28;81111;-71
2023/10/26 12:08:38;;;;;;;2.75;1.10;;;24.40;52.90;;;;;;6177527;28;80250;-69
2023/10/26 12:11:39;;;;;;;1.65;1.00;;;24.40;53.00;;;;;;6176470;28;81438;-68
2023/10/26 12:14:40;;;;;;;1.80;0.90;;;24.40;53.00;;;;;;6179593;28;82999;-68
2023/10/26 12:17:40;;;;;;;2.22;1.35;;;24.40;53.80;;;;;;6169366;28;80973;-68
2023/10/26 12:20:41;;;;;;;2.95;1.13;;;24.40;53.30;;;;;;6164622;28;81273;-69
2023/10/26 12:23:41;;;;;;;1.52;1.20;;;24.50;52.90;;;;;;6171098;28;80333;-68
2023/10/26 12:26:42;;;;;;;3.13;1.63;;;24.60;52.80;;;;;;6173493;28;81604;-69
2023/10/26 12:29:42;;;;;;;2.85;1.10;;;24.70;52.70;;;;;;6169523;28;83924;-68
2023/10/26 12:32:43;;;;;;;4.18;1.40;;;24.60;52.50;;;;;;6174419;28;80460;-70
2023/10/26 12:35:43;;;;;;;1.30;1.20;;;24.70;52.40;;;;;;6171209;28;80885;-69
2023/10/26 12:38:44;;;;;;;2.72;1.10;;;24.80;52.10;;;;;;6173215;28;84663;-69
2023/10/26 12:41:44;;;;;;;1.45;1.23;;;24.90;51.80;;;;;;6172076;28;80476;-66
2023/10/26 12:44:45;;;;;;;2.97;1.13;;;25.00;51.80;;;;;;6168300;28;81330;-70
2023/10/26 12:47:45;;;;;;;4.28;1.23;;;25.00;51.90;;;;;;6168701;28;80369;-70
2023/10/26 12:50:47;;;;;;;1.70;1.25;;;24.90;51.70;;;;;;6193376;28;81286;-68
2023/10/26 12:53:47;;;;;;;2.13;0.90;;;24.80;51.70;;;;;;6207515;28;80400;-65
2023/10/26 12:56:48;;;;;;;2.40;1.10;;;24.80;51.70;;;;;;6206914;27;80937;-66
2023/10/26 12:59:50;;;;;;;1.70;1.00;;;24.70;51.80;;;;;;6210879;27;80397;-66
2023/10/26 13:02:50;;;;;;;2.60;1.10;;;24.70;52.00;;;;;;6173768;28;80494;-65
2023/10/26 13:05:51;;;;;;;2.15;0.93;;;24.70;52.20;;;;;;6201550;28;81732;-66
2023/10/26 13:08:52;;;;;;;1.70;1.05;;;24.60;52.00;;;;;;6177082;28;81031;-62
2023/10/26 13:11:52;;;;;;;1.55;1.00;;;24.60;52.30;;;;;;6173418;28;80968;-68
2023/10/26 13:14:53;;;;;;;2.17;1.27;;;24.50;52.10;;;;;;6165275;28;82392;-62
2023/10/26 13:17:53;;;;;;;1.73;0.98;;;24.40;51.40;;;;;;6203101;28;80455;-63
2023/10/26 13:20:54;;;;;;;6.53;0.80;;;24.40;52.20;;;;;;6179335;27;81328;-64
2023/10/26 13:23:54;;;;;;;7.53;1.00;;;24.30;52.00;;;;;;6219000;28;83238;-66
2023/10/26 13:26:55;;;;;;;2.10;1.25;;;24.30;51.90;;;;;;6203522;28;80671;-66
2023/10/26 13:29:55;;;;;;;2.83;1.20;;;24.30;51.80;;;;;;6207069;28;80915;-64
2023/10/26 13:32:56;;;;;;;5.90;1.10;;;24.30;51.80;;;;;;6218814;27;80519;-71
2023/10/26 13:35:56;;;;;;;4.88;1.15;;;24.30;51.80;;;;;;6199934;28;80787;-70
2023/10/26 13:38:57;;;;;;;1.25;1.10;;;24.20;51.80;;;;;;6212544;27;80666;-70
2023/10/26 13:41:57;;;;;;;2.25;1.00;;;24.20;52.00;;;;;;6181485;28;80539;-70
2023/10/26 13:44:58;;;;;;;1.52;1.00;;;24.20;52.10;;;;;;6171883;28;80587;-70
2023/10/26 13:47:59;;;;;;;2.25;1.25;;;24.20;52.10;;;;;;6178948;28;86102;-66
2023/10/26 13:51:00;;;;;;;1.25;1.00;;;24.10;52.10;;;;;;6217872;27;80918;-63
2023/10/26 13:54:00;;;;;;;2.75;1.30;;;24.20;52.20;;;;;;6202477;28;80516;-61
2023/10/26 13:57:01;;;;;;;1.88;1.20;;;24.20;52.30;;;;;;6209131;27;80285;-61
2023/10/26 14:00:06;;;;;;;1.80;1.08;;;24.10;52.50;;;;;;6218372;28;80591;-68
2023/10/26 14:03:12;;;;;;;1.77;1.10;;;24.10;52.80;;;;;;6175523;28;80332;-73
2023/10/26 14:06:13;;;;;;;3.58;1.42;;;24.10;53.10;;;;;;6173819;28;80380;-66
2023/10/26 14:09:14;;;;;;;3.95;1.25;;;24.10;53.30;;;;;;6208676;27;81786;-64
2023/10/26 14:12:15;;;;;;;3.65;1.10;;;24.10;53.50;;;;;;6203104;27;80563;-66
2023/10/26 14:15:16;;;;;;;1.98;1.10;;;24.10;53.80;;;;;;6206857;27;81194;-62
2023/10/26 14:18:16;;;;;;;3.95;1.30;;;24.10;53.90;;;;;;6175104;28;83210;-66
2023/10/26 14:21:17;;;;;;;5.60;1.13;;;24.10;54.80;;;;;;6179128;28;80244;-66
2023/10/26 14:24:17;;;;;;;5.88;1.08;;;24.30;54.60;;;;;;6176789;28;80361;-66
2023/10/26 14:27:18;;;;;;;3.03;1.30;;;24.40;53.80;;;;;;6176002;28;80618;-64
2023/10/26 14:30:18;;;;;;;2.30;1.13;;;24.40;53.90;;;;;;6192341;28;82484;-72
2023/10/26 14:33:19;;;;;;;5.03;1.17;;;24.30;53.70;;;;;;6186571;28;81483;-74
2023/10/26 14:36:20;;;;;;;6.72;1.50;;;24.20;53.20;;;;;;6174271;28;83807;-73
2023/10/26 14:39:21;;;;;;;2.03;1.30;;;24.10;53.50;;;;;;6170146;28;81168;-69
2023/10/26 14:42:21;;;;;;;3.10;1.40;;;24.00;53.70;;;;;;6178874;28;80674;-67
2023/10/26 14:45:23;;;;;;;5.28;2.03;;;24.00;53.40;;;;;;6225044;27;81108;-70
2023/10/26 14:48:24;;;;;;;2.05;1.27;;;23.90;53.40;;;;;;6221978;28;82784;-68
2023/10/26 14:51:24;;;;;;;3.25;1.40;;;23.90;53.60;;;;;;6214745;28;80440;-71
2023/10/26 14:54:25;;;;;;;2.65;1.20;;;23.80;53.40;;;;;;6216161;27;80263;-67
2023/10/26 14:57:25;;;;;;;2.20;1.25;;;23.80;53.60;;;;;;6205112;28;80440;-66
2023/10/26 15:00:26;;;;;;;5.43;1.55;;;23.70;53.60;;;;;;6215959;27;80339;-69
2023/10/26 15:03:26;;;;;;;4.30;1.10;;;23.70;53.60;;;;;;6224232;27;80591;-65
2023/10/26 15:06:27;;;;;;;4.10;1.40;;;23.70;53.60;;;;;;6221268;27;80061;-67
2023/10/26 15:09:32;;;;;;;3.25;1.13;;;23.60;53.90;;;;;;6219200;27;80513;-66
2023/10/26 15:12:32;;;;;;;6.10;1.20;;;23.60;54.80;;;;;;6213615;28;81392;-65
2023/10/26 15:15:32;;;;;;;8.30;1.52;;;23.70;55.10;;;;;;6216802;27;80656;-70
2023/10/26 15:18:33;;;;;;;7.20;1.15;;;23.70;55.10;;;;;;6185116;28;83486;-69
2023/10/26 15:21:33;;;;;;;1.40;1.10;;;23.70;55.30;;;;;;6173036;28;81655;-71
2023/10/26 15:24:34;;;;;;;4.93;1.20;;;23.70;55.30;;;;;;6171713;28;81297;-71
2023/10/26 15:27:34;;;;;;;5.15;1.33;;;23.60;55.30;;;;;;6176836;28;80711;-70
2023/10/26 15:30:35;;;;;;;9.18;1.50;;;23.60;55.60;;;;;;6170200;28;80345;-72
2023/10/26 15:33:35;;;;;;;6.25;1.90;;;23.60;55.70;;;;;;6191828;28;80485;-73
2023/10/26 15:36:36;;;;;;;2.25;1.23;;;23.60;55.80;;;;;;6167691;28;81122;-72